createdAt,value
2019-01-26T00:00:49.684Z,20.80
2019-01-26T00:03:17.382Z,18.70
2019-01-26T00:05:43.698Z,18.77
2019-01-26T00:08:10.210Z,19.83
2019-01-26T00:10:38.748Z,19.33
2019-01-26T00:13:05.229Z,21.47
2019-01-26T00:15:38.462Z,19.20
2019-01-26T00:18:04.830Z,19.33
2019-01-26T00:20:31.192Z,19.37
2019-01-26T00:22:57.516Z,17.10
2019-01-26T00:25:23.997Z,17.90
2019-01-26T00:27:50.352Z,18.70
2019-01-26T00:30:17.004Z,18.20
2019-01-26T00:32:52.044Z,19.37
2019-01-26T00:35:18.225Z,20.03
2019-01-26T00:37:44.605Z,18.70
2019-01-26T00:40:11.504Z,18.77
2019-01-26T00:42:38.104Z,21.60
2019-01-26T00:45:04.766Z,21.13
2019-01-26T00:47:31.124Z,21.53
2019-01-26T00:49:57.668Z,22.27
2019-01-26T00:52:23.990Z,21.63
2019-01-26T00:54:50.364Z,18.93
2019-01-26T00:57:16.729Z,21.83
2019-01-26T00:59:43.013Z,19.87
2019-01-26T01:02:09.408Z,20.43
2019-01-26T01:04:35.725Z,21.67
2019-01-26T01:07:02.132Z,18.23
2019-01-26T01:09:28.463Z,24.20
2019-01-26T01:11:55.018Z,19.57
2019-01-26T01:14:22.389Z,20.43
2019-01-26T01:16:48.681Z,21.27
2019-01-26T01:19:15.133Z,20.83
2019-01-26T01:21:42.493Z,18.73
2019-01-26T01:24:08.817Z,19.90
2019-01-26T01:26:35.165Z,16.93
2019-01-26T01:29:01.496Z,18.07
2019-01-26T01:31:27.781Z,20.07
2019-01-26T01:33:54.045Z,16.67
2019-01-26T01:36:20.373Z,20.53
2019-01-26T01:38:46.716Z,16.77
2019-01-26T01:41:12.941Z,18.27
2019-01-26T01:43:39.232Z,16.17
2019-01-26T01:46:05.524Z,16.50
2019-01-26T01:48:31.901Z,17.17
2019-01-26T01:51:00.225Z,15.93
2019-01-26T01:53:26.613Z,17.20
2019-01-26T01:55:52.828Z,14.90
2019-01-26T01:58:19.208Z,15.77
2019-01-26T02:00:45.548Z,13.37
2019-01-26T02:03:12.159Z,12.87
2019-01-26T02:05:38.491Z,15.23
2019-01-26T02:08:04.925Z,17.73
2019-01-26T02:10:36.232Z,15.40
2019-01-26T02:13:02.468Z,13.30
2019-01-26T02:15:28.952Z,14.93
2019-01-26T02:17:55.348Z,14.53
2019-01-26T02:20:32.418Z,17.87
2019-01-26T02:22:58.753Z,17.73
2019-01-26T02:25:25.183Z,16.60
2019-01-26T02:27:51.545Z,15.67
2019-01-26T02:30:18.897Z,17.67
2019-01-26T02:32:45.154Z,17.00
2019-01-26T02:35:13.812Z,17.33
2019-01-26T02:37:40.140Z,16.43
2019-01-26T02:40:08.579Z,17.80
2019-01-26T02:42:34.956Z,17.53
2019-01-26T02:45:01.302Z,18.87
2019-01-26T02:47:27.659Z,18.03
2019-01-26T02:49:53.996Z,18.73
2019-01-26T02:52:21.293Z,19.23
2019-01-26T02:54:47.500Z,21.07
2019-01-26T02:57:13.924Z,20.07
2019-01-26T02:59:40.178Z,19.40
2019-01-26T03:02:06.404Z,21.00
2019-01-26T03:04:32.711Z,19.53
2019-01-26T03:06:59.080Z,20.40
2019-01-26T03:09:25.434Z,20.63
2019-01-26T03:12:07.284Z,20.57
2019-01-26T03:14:33.638Z,18.60
2019-01-26T03:17:05.940Z,19.93
2019-01-26T03:19:28.084Z,18.83
2019-01-26T03:21:54.390Z,17.73
2019-01-26T03:24:20.656Z,19.63
2019-01-26T03:26:47.045Z,17.77
2019-01-26T03:29:13.248Z,16.10
2019-01-26T03:31:39.530Z,15.70
2019-01-26T03:34:05.865Z,16.10
2019-01-26T03:36:32.157Z,15.07
2019-01-26T03:38:58.423Z,15.93
2019-01-26T03:41:24.859Z,14.40
2019-01-26T03:43:51.085Z,17.23
2019-01-26T03:46:18.611Z,14.90
2019-01-26T03:48:45.001Z,13.13
2019-01-26T03:51:11.667Z,13.67
2019-01-26T03:53:38.064Z,13.40
2019-01-26T03:56:04.446Z,12.20
2019-01-26T03:58:30.784Z,13.60
2019-01-26T04:00:57.214Z,13.20
2019-01-26T04:03:23.452Z,14.60
2019-01-26T04:05:49.958Z,15.03
2019-01-26T04:08:16.642Z,15.20
2019-01-26T04:10:44.916Z,13.93
2019-01-26T04:13:11.651Z,13.37
2019-01-26T04:15:37.984Z,14.33
2019-01-26T04:18:04.429Z,12.60
2019-01-26T04:20:30.744Z,14.43
2019-01-26T04:22:57.018Z,14.27
2019-01-26T04:25:23.372Z,14.60
2019-01-26T04:27:49.716Z,14.57
2019-01-26T04:30:17.481Z,13.60
2019-01-26T04:32:43.740Z,12.97
2019-01-26T04:35:10.041Z,14.00
2019-01-26T04:37:36.473Z,12.27
2019-01-26T04:40:03.263Z,13.47
2019-01-26T04:42:29.566Z,12.90
2019-01-26T04:44:55.793Z,14.60
2019-01-26T04:47:31.120Z,12.33
2019-01-26T04:49:56.698Z,14.90
2019-01-26T04:52:23.020Z,13.93
2019-01-26T04:54:49.345Z,15.23
2019-01-26T04:57:15.613Z,12.83
2019-01-26T04:59:56.420Z,12.13
2019-01-26T05:02:22.675Z,14.17
2019-01-26T05:04:48.940Z,13.80
2019-01-26T05:07:15.312Z,15.00
2019-01-26T05:09:41.596Z,13.33
2019-01-26T05:12:07.960Z,12.20
2019-01-26T05:14:34.353Z,10.57
2019-01-26T05:17:00.730Z,13.57
2019-01-26T05:19:26.940Z,10.53
2019-01-26T05:21:53.443Z,11.70
2019-01-26T05:24:19.720Z,9.93
2019-01-26T05:26:46.201Z,9.37
2019-01-26T05:29:12.632Z,10.23
2019-01-26T05:31:40.933Z,9.53
2019-01-26T05:34:07.305Z,9.33
2019-01-26T05:36:33.628Z,9.10
2019-01-26T05:38:59.972Z,9.00
2019-01-26T05:41:26.352Z,8.70
2019-01-26T05:43:58.698Z,8.03
2019-01-26T05:46:25.252Z,9.47
2019-01-26T05:48:51.793Z,8.90
2019-01-26T05:51:18.156Z,9.93
2019-01-26T05:53:44.410Z,10.17
2019-01-26T05:56:10.854Z,11.00
2019-01-26T05:58:37.276Z,12.63
2019-01-26T06:01:03.614Z,13.27
2019-01-26T06:03:29.985Z,9.83
2019-01-26T06:05:56.596Z,10.10
2019-01-26T06:08:22.916Z,11.50
2019-01-26T06:10:49.276Z,10.50
2019-01-26T06:13:17.826Z,12.47
2019-01-26T06:15:49.589Z,10.13
2019-01-26T06:18:17.175Z,11.93
2019-01-26T06:20:47.349Z,10.30
2019-01-26T06:23:13.932Z,10.60
2019-01-26T06:25:40.442Z,11.07
2019-01-26T06:28:06.848Z,9.63
2019-01-26T06:30:34.249Z,9.70
2019-01-26T06:33:00.676Z,10.23
2019-01-26T06:35:27.076Z,11.23
2019-01-26T06:37:53.417Z,9.37
2019-01-26T06:40:19.914Z,8.57
2019-01-26T06:42:52.453Z,9.30
2019-01-26T06:45:19.292Z,10.53
2019-01-26T06:47:46.824Z,9.23
2019-01-26T06:50:14.341Z,9.53
2019-01-26T06:52:46.580Z,9.20
2019-01-26T06:55:13.111Z,9.03
2019-01-26T06:57:39.643Z,9.80
2019-01-26T07:00:07.838Z,7.70
2019-01-26T07:02:42.475Z,8.37
2019-01-26T07:05:26.804Z,8.77
2019-01-26T07:07:53.780Z,7.90
2019-01-26T07:10:20.188Z,11.37
2019-01-26T07:12:46.621Z,10.00
2019-01-26T07:15:14.418Z,7.63
2019-01-26T07:17:40.798Z,8.43
2019-01-26T07:20:09.193Z,8.60
2019-01-26T07:22:35.834Z,12.57
2019-01-26T07:25:02.304Z,9.23
2019-01-26T07:27:47.851Z,7.80
2019-01-26T07:30:16.061Z,7.30
2019-01-26T07:32:42.364Z,7.43
2019-01-26T07:35:08.741Z,7.53
2019-01-26T07:37:35.188Z,6.60
2019-01-26T07:40:08.550Z,6.90
2019-01-26T07:42:35.108Z,8.17
2019-01-26T07:45:01.663Z,10.37
2019-01-26T07:47:28.506Z,7.43
2019-01-26T07:49:56.969Z,7.23
2019-01-26T07:52:29.246Z,7.20
2019-01-26T07:54:55.874Z,6.80
2019-01-26T07:57:22.555Z,7.33
2019-01-26T07:59:48.942Z,7.67
2019-01-26T08:02:15.826Z,7.83
2019-01-26T08:04:42.591Z,7.40
2019-01-26T08:07:09.038Z,8.90
2019-01-26T08:09:35.521Z,9.33
2019-01-26T08:12:02.198Z,8.53
2019-01-26T08:14:28.764Z,9.43
2019-01-26T08:16:55.361Z,9.93
2019-01-26T08:20:03.293Z,9.87
2019-01-26T08:22:29.657Z,10.90
2019-01-26T08:24:56.141Z,9.70
2019-01-26T08:27:22.481Z,9.87
2019-01-26T08:29:48.842Z,11.10
2019-01-26T08:32:17.696Z,8.60
2019-01-26T08:34:45.299Z,9.60
2019-01-26T08:37:12.193Z,15.07
2019-01-26T08:39:38.572Z,8.80
2019-01-26T08:42:30.035Z,8.90
2019-01-26T08:44:58.077Z,9.07
2019-01-26T08:47:29.484Z,9.13
2019-01-26T08:49:56.061Z,9.17
2019-01-26T08:52:22.841Z,9.77
2019-01-26T08:54:51.782Z,10.80
2019-01-26T08:57:18.444Z,10.73
2019-01-26T08:59:44.786Z,11.47
2019-01-26T09:02:25.495Z,11.97
2019-01-26T09:04:58.712Z,9.60
2019-01-26T09:07:25.226Z,12.13
2019-01-26T09:09:51.832Z,10.70
2019-01-26T09:12:18.320Z,10.37
2019-01-26T09:14:44.933Z,9.53
2019-01-26T09:17:11.652Z,10.10
2019-01-26T09:19:38.229Z,8.27
2019-01-26T09:22:04.921Z,8.87
2019-01-26T09:24:31.260Z,9.60
2019-01-26T09:26:57.691Z,9.70
2019-01-26T09:29:24.099Z,9.40
2019-01-26T09:31:50.443Z,8.27
2019-01-26T09:34:17.744Z,10.03
2019-01-26T09:36:44.591Z,11.40
2019-01-26T09:39:11.776Z,11.73
2019-01-26T09:41:38.806Z,11.87
2019-01-26T09:44:12.061Z,11.33
2019-01-26T09:46:38.967Z,11.80
2019-01-26T09:49:05.920Z,10.40
2019-01-26T09:51:32.668Z,12.93
2019-01-26T09:53:59.951Z,13.57
2019-01-26T09:56:26.820Z,12.07
2019-01-26T09:58:53.658Z,13.47
2019-01-26T10:01:20.600Z,11.47
2019-01-26T10:03:47.542Z,13.73
2019-01-26T10:06:14.657Z,11.93
2019-01-26T10:08:55.780Z,11.23
2019-01-26T10:11:23.012Z,14.70
2019-01-26T10:13:50.880Z,11.50
2019-01-26T10:16:25.099Z,14.50
2019-01-26T10:19:06.747Z,13.27
2019-01-26T10:21:41.281Z,12.83
2019-01-26T10:24:18.002Z,11.43
2019-01-26T10:27:05.307Z,12.83
2019-01-26T10:29:32.813Z,11.47
2019-01-26T10:32:01.774Z,22.50
2019-01-26T10:34:28.229Z,12.57
2019-01-26T10:37:03.001Z,10.30
2019-01-26T10:39:29.907Z,10.57
2019-01-26T10:42:26.833Z,9.10
2019-01-26T10:44:53.717Z,9.70
2019-01-26T10:47:22.617Z,9.77
2019-01-26T10:49:51.084Z,9.03
2019-01-26T10:52:18.348Z,11.93
2019-01-26T10:54:47.538Z,11.80
2019-01-26T10:57:14.295Z,10.63
2019-01-26T10:59:41.020Z,15.83
2019-01-26T11:02:08.263Z,13.70
2019-01-26T11:04:35.046Z,11.77
2019-01-26T11:07:15.846Z,13.77
2019-01-26T11:09:51.639Z,12.67
2019-01-26T11:12:21.369Z,14.67
2019-01-26T11:14:48.569Z,16.00
2019-01-26T11:17:17.684Z,14.67
2019-01-26T11:19:44.582Z,14.43
2019-01-26T11:22:14.161Z,15.30
2019-01-26T11:24:41.075Z,14.90
2019-01-26T11:27:08.160Z,14.30
2019-01-26T11:29:35.115Z,16.07
2019-01-26T11:32:02.117Z,16.40
2019-01-26T11:34:29.137Z,15.67
2019-01-26T11:36:56.077Z,18.43
2019-01-26T11:39:22.948Z,20.17
2019-01-26T11:41:52.039Z,16.00
2019-01-26T11:44:19.218Z,17.23
2019-01-26T11:46:58.024Z,15.13
2019-01-26T11:49:24.960Z,17.90
2019-01-26T11:52:11.217Z,19.07
2019-01-26T11:55:03.910Z,28.00
2019-01-26T11:57:33.449Z,19.13
2019-01-26T12:00:18.489Z,20.17
2019-01-26T12:02:51.225Z,25.40
2019-01-26T12:05:25.708Z,17.50
2019-01-26T12:07:52.572Z,19.37
2019-01-26T12:10:19.591Z,19.87
2019-01-26T12:12:46.497Z,18.17
2019-01-26T12:15:14.006Z,17.33
2019-01-26T12:17:40.801Z,18.40
2019-01-26T12:20:09.054Z,19.03
2019-01-26T12:22:36.071Z,18.63
2019-01-26T12:25:02.720Z,17.17
2019-01-26T12:27:29.073Z,17.77
2019-01-26T12:29:55.549Z,17.90
2019-01-26T12:32:22.119Z,15.73
2019-01-26T12:34:48.502Z,14.07
2019-01-26T12:37:14.973Z,15.70
2019-01-26T12:39:41.313Z,15.83
2019-01-26T12:42:07.888Z,22.63
2019-01-26T12:44:34.478Z,19.93
2019-01-26T12:47:03.879Z,18.83
2019-01-26T12:49:30.620Z,18.17
2019-01-26T12:51:57.215Z,18.90
2019-01-26T12:54:23.991Z,17.93
2019-01-26T12:56:50.626Z,20.87
2019-01-26T12:59:17.032Z,20.10
2019-01-26T13:01:43.612Z,17.60
2019-01-26T13:04:10.235Z,17.83
2019-01-26T13:06:37.471Z,16.70
2019-01-26T13:09:06.760Z,20.40
2019-01-26T13:11:33.373Z,19.07
2019-01-26T13:13:59.978Z,20.30
2019-01-26T13:16:26.669Z,21.27
2019-01-26T13:18:53.138Z,19.53
2019-01-26T13:21:22.278Z,21.63
2019-01-26T13:23:48.929Z,18.47
2019-01-26T13:26:15.914Z,18.37
2019-01-26T13:28:42.466Z,19.10
2019-01-26T13:31:08.962Z,20.70
2019-01-26T13:33:35.490Z,15.37
2019-01-26T13:36:07.381Z,15.40
2019-01-26T13:38:34.099Z,12.80
2019-01-26T13:41:09.972Z,13.00
2019-01-26T13:43:38.285Z,12.17
2019-01-26T13:46:05.620Z,13.13
2019-01-26T13:48:32.480Z,13.23
2019-01-26T13:50:58.981Z,15.43
2019-01-26T13:53:25.558Z,10.90
2019-01-26T13:55:53.268Z,13.83
2019-01-26T13:58:19.948Z,12.33
2019-01-26T14:00:46.726Z,15.67
2019-01-26T14:03:13.285Z,13.90
2019-01-26T14:05:39.861Z,12.90
2019-01-26T14:08:06.480Z,17.87
2019-01-26T14:10:33.146Z,17.40
2019-01-26T14:12:59.686Z,14.83
2019-01-26T14:15:26.542Z,13.87
2019-01-26T14:17:53.094Z,17.73
2019-01-26T14:20:20.409Z,15.13
2019-01-26T14:22:46.876Z,17.83
2019-01-26T14:25:13.824Z,16.67
2019-01-26T14:27:40.447Z,19.60
2019-01-26T14:30:10.182Z,24.83
2019-01-26T14:32:36.815Z,20.00
2019-01-26T14:35:03.406Z,23.23
2019-01-26T14:37:29.985Z,23.90
2019-01-26T14:39:56.594Z,22.97
2019-01-26T14:42:44.619Z,22.13
2019-01-26T14:45:14.596Z,22.00
2019-01-26T14:47:53.001Z,25.07
2019-01-26T14:50:25.329Z,23.17
2019-01-26T14:52:52.003Z,23.37
2019-01-26T14:56:26.765Z,22.77
2019-01-26T14:58:56.995Z,24.10
2019-01-26T15:01:23.457Z,22.67
2019-01-26T15:03:53.108Z,23.40
2019-01-26T15:10:41.457Z,27.17
2019-01-26T15:13:32.545Z,23.87
2019-01-26T15:15:59.153Z,23.50
2019-01-26T15:18:30.849Z,23.00
2019-01-26T15:20:58.670Z,25.17
2019-01-26T15:23:25.340Z,26.03
2019-01-26T15:25:53.200Z,26.80
2019-01-26T15:28:19.865Z,24.43
2019-01-26T15:30:46.446Z,25.27
2019-01-26T15:33:19.329Z,26.80
2019-01-26T15:35:46.053Z,25.33
2019-01-26T15:38:12.592Z,21.13
2019-01-26T15:40:41.120Z,20.67
2019-01-26T15:43:07.620Z,20.73
2019-01-26T15:45:35.509Z,19.23
2019-01-26T15:48:02.012Z,22.20
2019-01-26T15:50:29.576Z,22.83
2019-01-26T15:52:56.344Z,26.70
2019-01-26T15:55:23.296Z,24.40
2019-01-26T15:57:49.838Z,27.93
2019-01-26T16:00:17.525Z,25.53
2019-01-26T16:02:44.119Z,23.53
2019-01-26T16:05:13.962Z,24.40
2019-01-26T16:07:40.525Z,23.53
2019-01-26T16:10:07.546Z,24.13
2019-01-26T16:12:34.336Z,23.27
2019-01-26T16:15:01.207Z,22.97
2019-01-26T16:17:28.053Z,26.33
2019-01-26T16:19:54.790Z,23.17
2019-01-26T16:22:21.621Z,25.67
2019-01-26T16:24:51.441Z,22.70
2019-01-26T16:27:21.206Z,22.93
2019-01-26T16:29:48.866Z,26.00
2019-01-26T16:32:15.767Z,23.00
2019-01-26T16:34:43.039Z,28.13
2019-01-26T16:37:09.685Z,28.97
2019-01-26T16:39:37.149Z,26.10
2019-01-26T16:42:04.968Z,25.60
2019-01-26T16:44:34.218Z,21.93
2019-01-26T16:47:00.999Z,24.23
2019-01-26T16:49:30.813Z,26.87
2019-01-26T16:51:57.475Z,28.17
2019-01-26T16:54:24.230Z,26.40
2019-01-26T16:56:51.175Z,31.30
2019-01-26T16:59:38.544Z,26.03
2019-01-26T17:02:11.176Z,26.17
2019-01-26T17:04:51.802Z,28.30
2019-01-26T17:07:25.463Z,25.73
2019-01-26T17:09:53.969Z,27.63
2019-01-26T17:12:44.867Z,26.70
2019-01-26T17:18:02.671Z,24.23
2019-01-26T17:20:40.020Z,27.17
2019-01-26T17:23:42.421Z,22.93
2019-01-26T17:26:00.970Z,27.23
2019-01-26T17:28:35.568Z,21.63
2019-01-26T17:31:06.358Z,20.63
2019-01-26T17:34:05.998Z,18.50
2019-01-26T17:36:33.676Z,17.77
2019-01-26T17:39:02.570Z,18.27
2019-01-26T17:41:34.102Z,17.50
2019-01-26T17:44:01.203Z,16.10
2019-01-26T17:46:29.763Z,15.73
2019-01-26T17:48:58.891Z,15.67
2019-01-26T17:51:42.210Z,16.97
2019-01-26T17:54:28.141Z,14.57
2019-01-26T17:56:56.725Z,14.73
2019-01-26T17:59:28.193Z,13.87
2019-01-26T18:02:15.963Z,12.83
2019-01-26T18:04:53.750Z,13.37
2019-01-26T18:07:22.294Z,11.60
2019-01-26T18:10:06.382Z,11.97
2019-01-26T18:12:43.623Z,12.53
2019-01-26T18:15:30.021Z,10.87
2019-01-26T18:18:28.751Z,11.70
2019-01-26T18:20:56.011Z,12.40
2019-01-26T18:23:29.699Z,11.47
2019-01-26T18:26:01.911Z,11.73
2019-01-26T18:28:37.582Z,12.67
2019-01-26T18:31:04.423Z,13.17
2019-01-26T18:33:35.012Z,13.10
2019-01-26T18:36:01.990Z,15.50
2019-01-26T18:38:31.288Z,14.50
2019-01-26T18:41:01.430Z,14.53
2019-01-26T18:43:29.899Z,16.37
2019-01-26T18:45:56.796Z,15.27
2019-01-26T18:48:23.606Z,14.47
2019-01-26T18:50:59.423Z,14.53
2019-01-26T18:53:29.319Z,14.43
2019-01-26T18:56:02.097Z,16.23
2019-01-26T18:58:41.434Z,14.87
2019-01-26T19:01:08.787Z,16.37
2019-01-26T19:04:01.123Z,15.13
2019-01-26T19:06:29.156Z,16.00
2019-01-26T19:09:06.228Z,16.27
2019-01-26T19:11:33.986Z,17.07
2019-01-26T19:14:06.791Z,16.07
2019-01-26T19:16:33.831Z,16.07
2019-01-26T19:19:06.923Z,14.50
2019-01-26T19:21:37.259Z,15.50
2019-01-26T19:24:09.068Z,14.87
2019-01-26T19:26:36.184Z,15.47
2019-01-26T19:29:04.884Z,15.33
2019-01-26T19:31:32.642Z,15.87
2019-01-26T19:34:10.073Z,17.23
2019-01-26T19:36:40.596Z,15.07
2019-01-26T19:39:07.635Z,14.80
2019-01-26T19:41:34.424Z,15.00
2019-01-26T19:44:01.400Z,13.77
2019-01-26T19:46:30.611Z,14.93
2019-01-26T19:48:57.724Z,14.13
2019-01-26T19:51:27.008Z,14.20
2019-01-26T19:53:53.887Z,13.53
2019-01-26T19:56:28.372Z,14.47
2019-01-26T19:58:59.746Z,14.27
2019-01-26T20:01:27.932Z,12.60
2019-01-26T20:03:54.764Z,13.47
2019-01-26T20:06:21.858Z,11.23
2019-01-26T20:08:54.189Z,10.97
2019-01-26T20:11:21.038Z,10.40
2019-01-26T20:13:47.992Z,11.73
2019-01-26T20:16:14.748Z,12.27
2019-01-26T20:18:45.672Z,11.57
2019-01-26T20:21:23.140Z,10.53
2019-01-26T20:23:55.861Z,11.47
2019-01-26T20:26:24.229Z,12.47
2019-01-26T20:28:54.774Z,11.77
2019-01-26T20:31:21.510Z,10.07
2019-01-26T20:33:56.815Z,12.20
2019-01-26T20:36:30.568Z,9.77
2019-01-26T20:39:00.720Z,11.03
2019-01-26T20:41:27.510Z,12.43
2019-01-26T20:43:54.446Z,10.63
2019-01-26T20:46:22.764Z,10.03
2019-01-26T20:48:53.331Z,9.93
2019-01-26T20:51:57.900Z,11.33
2019-01-26T20:54:25.676Z,10.10
2019-01-26T20:56:53.097Z,10.43
2019-01-26T20:59:26.650Z,13.77
2019-01-26T21:01:56.576Z,10.23
2019-01-26T21:04:26.893Z,11.53
2019-01-26T21:06:54.081Z,10.30
2019-01-26T21:09:32.253Z,10.10
2019-01-26T21:11:59.146Z,10.10
2019-01-26T21:14:30.873Z,9.27
2019-01-26T21:17:09.177Z,9.90
2019-01-26T21:19:46.798Z,9.10
2019-01-26T21:22:21.866Z,9.53
2019-01-26T21:28:17.434Z,9.03
2019-01-26T21:30:44.390Z,9.13
2019-01-26T21:33:34.704Z,9.30
2019-01-26T21:36:04.785Z,9.00
2019-01-26T21:38:34.608Z,8.33
2019-01-26T21:41:01.747Z,9.17
2019-01-26T21:43:28.464Z,9.27
2019-01-26T21:48:45.730Z,12.73
2019-01-26T21:51:12.420Z,8.70
2019-01-26T21:53:45.565Z,8.47
2019-01-26T21:56:17.235Z,8.27
2019-01-26T22:01:42.337Z,11.17
2019-01-26T22:04:13.388Z,8.40
2019-01-26T22:06:45.220Z,9.20
2019-01-26T22:09:12.291Z,8.73
2019-01-26T22:11:39.301Z,8.50
2019-01-26T22:14:06.165Z,8.43
2019-01-26T22:16:33.119Z,8.43
2019-01-26T22:19:00.088Z,8.10
2019-01-26T22:21:26.908Z,10.10
2019-01-26T22:23:56.943Z,8.23
2019-01-26T22:26:23.773Z,8.40
2019-01-26T22:28:56.966Z,8.13
2019-01-26T22:31:25.093Z,7.67
2019-01-26T22:33:52.260Z,8.27
2019-01-26T22:36:19.356Z,7.83
2019-01-26T22:38:48.168Z,7.47
2019-01-26T22:41:15.522Z,8.00
2019-01-26T22:43:42.340Z,7.70
2019-01-26T22:46:12.411Z,7.77
2019-01-26T22:48:42.442Z,7.33
2019-01-26T22:51:13.898Z,8.20
2019-01-26T22:53:41.891Z,7.67
2019-01-26T22:56:17.693Z,7.70
2019-01-26T22:58:47.273Z,7.27
2019-01-26T23:01:28.294Z,6.97
2019-01-26T23:04:06.351Z,7.40
2019-01-26T23:06:52.529Z,6.60
2019-01-26T23:09:24.423Z,6.40
2019-01-26T23:11:59.881Z,6.90
2019-01-26T23:14:55.114Z,6.93
2019-01-26T23:17:53.591Z,6.60
2019-01-26T23:20:51.839Z,6.87
2019-01-26T23:23:40.037Z,7.03
2019-01-26T23:26:27.036Z,7.47
2019-01-26T23:29:22.415Z,7.47
2019-01-26T23:31:51.027Z,7.23
2019-01-26T23:34:18.247Z,7.57
2019-01-26T23:36:45.413Z,6.10
2019-01-26T23:39:12.689Z,7.40
2019-01-26T23:41:39.863Z,7.10
2019-01-26T23:44:06.674Z,7.20
2019-01-26T23:46:34.904Z,6.70
2019-01-26T23:49:01.865Z,6.17
2019-01-26T23:51:28.507Z,6.33
2019-01-26T23:53:55.513Z,6.60
2019-01-26T23:56:22.357Z,6.67
2019-01-26T23:58:50.317Z,6.90
